Time;durP1;ratioP1;P1;durP2;ratioP2;P2;SDS_P1;SDS_P2;PMS_P1;PMS_P2;Temp;Humidity;BMP_temperature;BMP_pressure;BME280_temperature;BME280_humidity;BME280_pressure;Samples;Min_cycle;Max_cycle;Signal;HPM_P1;HPM_P2
2024/03/23 00:00:47;;;;;;;22.30;14.90;;;;;;;9.68;72.06;97996.59;435320;1261;112681;-40
2024/03/23 00:11:11;;;;;;;26.40;16.90;;;;;;;9.53;72.34;97979.25;435301;1258;108626;-41
2024/03/23 00:21:17;;;;;;;30.10;16.90;;;;;;;9.41;72.63;97971.27;435225;1251;100706;-40
2024/03/23 00:31:24;;;;;;;25.40;16.80;;;;;;;9.33;72.96;97958.80;435196;1257;108610;-40
2024/03/23 00:41:31;;;;;;;24.00;16.10;;;;;;;9.27;73.69;97947.78;435124;1255;100606;-40
2024/03/23 00:51:37;;;;;;;29.20;18.80;;;;;;;9.17;74.16;97939.46;435182;1255;113973;-40
2024/03/23 01:01:44;;;;;;;32.80;18.80;;;;;;;8.96;74.59;97927.02;435241;1257;107529;-40
2024/03/23 01:11:50;;;;;;;36.90;19.40;;;;;;;8.82;75.05;97921.45;435307;1257;99911;-40
2024/03/23 01:21:57;;;;;;;37.00;21.40;;;;;;;8.76;75.64;97904.50;435193;1258;108234;-40
2024/03/23 01:32:03;;;;;;;35.70;21.40;;;;;;;8.71;76.24;97892.48;435115;1257;100591;-40
2024/03/23 01:42:09;;;;;;;33.30;20.00;;;;;;;8.75;76.79;97892.24;435229;1251;112901;-40
2024/03/23 01:52:16;;;;;;;46.10;26.50;;;;;;;8.76;77.49;97892.17;435139;1254;109296;-41
2024/03/23 02:02:23;;;;;;;34.60;20.70;;;;;;;8.72;77.78;97887.55;435364;1263;99350;-40
2024/03/23 02:12:29;;;;;;;41.20;20.50;;;;;;;8.67;78.05;97884.92;435126;1251;107536;-41
2024/03/23 02:32:43;;;;;;;38.70;22.70;;;;;;;8.58;78.62;97855.15;435139;1256;111595;-41
2024/03/23 02:42:50;;;;;;;42.00;23.70;;;;;;;8.47;78.92;97846.52;436122;1255;107596;-40
2024/03/23 02:52:57;;;;;;;38.10;22.30;;;;;;;8.35;79.56;97820.77;435308;1256;100587;-40
2024/03/23 03:13:09;;;;;;;34.50;18.20;;;;;;;8.23;80.77;97780.17;435187;1254;100063;-41
2024/03/23 03:23:17;;;;;;;29.20;18.50;;;;;;;8.21;81.43;97760.77;435246;1250;112392;-39
2024/03/23 03:33:24;;;;;;;32.00;18.30;;;;;;;8.24;81.79;97747.21;435331;1254;108512;-41
2024/03/23 03:43:31;;;;;;;38.40;20.30;;;;;;;8.24;82.10;97736.20;435350;1255;99886;-39
2024/03/23 03:53:37;;;;;;;44.00;20.70;;;;;;;8.14;82.35;97716.13;435338;1254;108713;-40
2024/03/23 04:03:46;;;;;;;36.40;19.50;;;;;;;8.05;82.71;97715.44;435248;1250;100590;-41
2024/03/23 04:13:52;;;;;;;39.40;20.10;;;;;;;8.03;83.35;97713.75;435337;1254;112671;-40
2024/03/23 04:23:59;;;;;;;44.30;21.50;;;;;;;8.02;83.75;97702.89;435208;1254;108166;-39
2024/03/23 04:34:05;;;;;;;32.10;18.20;;;;;;;7.97;84.18;97697.71;435197;1250;100698;-40
2024/03/23 04:44:12;;;;;;;31.40;17.40;;;;;;;7.96;84.78;97690.79;435209;1254;108061;-39
2024/03/23 04:54:19;;;;;;;32.40;16.20;;;;;;;7.97;84.99;97662.64;435257;1251;100722;-38
2024/03/23 05:04:25;;;;;;;25.40;15.80;;;;;;;7.94;85.95;97644.54;435196;1251;113574;-40
2024/03/23 05:14:32;;;;;;;26.90;15.90;;;;;;;7.94;86.32;97634.01;435088;1254;107525;-40
2024/03/23 05:24:39;;;;;;;25.50;16.10;;;;;;;7.95;86.76;97629.75;435130;1254;99347;-38
2024/03/23 05:34:46;;;;;;;34.60;18.30;;;;;;;7.95;86.85;97607.50;435143;1254;106874;-39
2024/03/23 05:44:53;;;;;;;31.90;19.80;;;;;;;8.01;87.04;97623.49;434778;1251;628299;-40
2024/03/23 05:54:59;;;;;;;28.40;17.90;;;;;;;8.16;86.89;97628.54;435297;1256;112617;-40
2024/03/23 06:05:07;;;;;;;34.40;20.00;;;;;;;8.29;86.84;97621.34;435205;1254;108357;-39
2024/03/23 06:15:13;;;;;;;40.80;20.50;;;;;;;8.39;86.96;97615.91;435303;1254;100664;-39
2024/03/23 06:25:20;;;;;;;40.60;20.80;;;;;;;8.53;87.09;97603.07;435250;1254;108596;-39
2024/03/23 06:35:26;;;;;;;33.50;18.50;;;;;;;8.76;86.92;97546.67;435188;1251;99312;-40
2024/03/23 06:45:33;;;;;;;31.20;18.00;;;;;;;9.04;87.05;97518.55;435203;1254;113344;-39
2024/03/23 06:55:39;;;;;;;30.60;17.40;;;;;;;9.28;87.02;97545.60;435275;1256;107351;-39
2024/03/23 07:15:55;;;;;;;31.40;20.40;;;;;;;10.49;87.00;97536.08;435385;1256;107921;-40
2024/03/23 07:26:04;;;;;;;36.90;19.00;;;;;;;11.43;86.09;97533.05;435260;1251;100476;-40
2024/03/23 07:36:11;;;;;;;30.50;18.40;;;;;;;11.78;85.25;97531.94;435393;1255;111616;-40
2024/03/23 07:46:19;;;;;;;29.00;18.50;;;;;;;12.45;85.42;97521.19;435254;1254;107928;-40
2024/03/23 07:56:25;;;;;;;26.00;16.10;;;;;;;13.26;83.44;97498.58;435391;1254;100620;-40
2024/03/23 08:06:32;;;;;;;23.00;14.10;;;;;;;14.17;82.01;97467.98;435189;1254;107334;-40
2024/03/23 08:26:56;;;;;;;21.50;13.30;;;;;;;15.83;76.58;97433.38;435249;1254;112954;-39
2024/03/23 08:37:03;;;;;;;17.50;12.10;;;;;;;16.11;74.14;97410.45;435268;1253;107817;-39
2024/03/23 08:47:08;;;;;;;14.00;10.60;;;;;;;16.43;71.81;97380.89;435324;1254;100587;-40
2024/03/23 08:57:15;;;;;;;18.40;10.80;;;;;;;16.39;70.44;97368.73;435520;1254;108586;-38
2024/03/23 09:07:22;;;;;;;14.60;9.70;;;;;;;16.56;69.47;97361.79;435229;1254;100620;-40
2024/03/23 09:17:28;;;;;;;15.90;8.80;;;;;;;16.86;67.04;97345.58;435387;1253;113231;-40
2024/03/23 09:27:34;;;;;;;12.00;9.60;;;;;;;16.82;65.06;97322.64;435398;1256;110068;-41
2024/03/23 09:57:52;;;;;;;14.20;8.20;;;;;;;17.64;63.11;97249.65;435312;1256;99378;-40
2024/03/23 10:07:59;;;;;;;15.80;8.90;;;;;;;17.85;61.44;97236.13;435462;1255;113287;-39
2024/03/23 10:18:05;;;;;;;9.70;7.60;;;;;;;17.84;57.74;97214.33;435367;1256;107736;-39
2024/03/23 10:28:12;;;;;;;10.00;7.10;;;;;;;18.02;56.73;97200.65;435323;1255;100861;-41
2024/03/23 10:38:19;;;;;;;11.20;6.00;;;;;;;18.36;57.47;97174.80;435307;1256;108452;-39
2024/03/23 10:48:26;;;;;;;9.00;6.10;;;;;;;18.28;54.68;97165.86;435365;1254;99364;-39
2024/03/23 10:58:38;;;;;;;10.70;6.10;;;;;;;18.10;54.41;97146.88;435288;1254;113243;-40
2024/03/23 11:18:52;;;;;;;8.70;6.00;;;;;;;16.86;56.12;97113.52;435229;1251;100603;-41
2024/03/23 11:49:27;;;;;;;8.50;6.50;;;;;;;18.18;54.81;97011.80;435488;1256;113010;-40
2024/03/23 12:19:51;;;;;;;4.80;3.80;;;;;;;18.33;52.96;96922.02;435244;1256;109461;-40
2024/03/23 12:29:56;;;;;;;4.70;3.30;;;;;;;18.71;51.24;96901.18;435481;1256;100626;-42
2024/03/23 12:50:11;;;;;;;4.00;3.40;;;;;;;18.96;48.84;96842.66;435361;1256;107538;-40
2024/03/23 13:00:18;;;;;;;8.30;3.40;;;;;;;18.98;48.54;96815.48;435251;1254;99395;-41
2024/03/23 13:10:25;;;;;;;4.80;3.30;;;;;;;18.55;48.67;96808.79;435216;1256;108894;-41
2024/03/23 13:20:32;;;;;;;5.80;3.00;;;;;;;17.97;48.58;96817.52;435215;1255;99388;-41
2024/03/23 13:30:38;;;;;;;6.20;4.40;;;;;;;17.43;50.01;96844.95;435408;1254;112955;-39
2024/03/23 13:40:53;;;;;;;10.70;5.80;;;;;;;15.84;56.64;96975.54;435204;1264;108289;-41
2024/03/23 14:01:09;;;;;;;6.40;3.80;;;;;;;12.83;68.12;97073.39;435223;1256;108088;-41
2024/03/23 14:11:15;;;;;;;6.50;4.80;;;;;;;12.21;71.82;97083.52;435145;1256;99983;-40
2024/03/23 14:21:22;;;;;;;7.30;5.60;;;;;;;11.91;72.63;97082.48;435323;1256;113210;-40
2024/03/23 14:31:29;;;;;;;6.50;3.80;;;;;;;11.79;73.55;97072.27;435147;1256;108655;-40
2024/03/23 14:41:36;;;;;;;5.70;3.30;;;;;;;11.70;74.44;97049.85;435148;1256;99357;-39
2024/03/23 14:51:42;;;;;;;4.60;3.40;;;;;;;11.70;74.48;97033.59;435194;1256;107633;-40
2024/03/23 15:01:49;;;;;;;22.30;15.80;;;;;;;11.69;74.42;97004.27;435215;1256;100594;-41
2024/03/23 15:22:01;;;;;;;8.70;6.80;;;;;;;11.71;75.66;97022.68;435172;1256;108482;-40
2024/03/23 15:32:07;;;;;;;8.20;5.10;;;;;;;11.79;76.28;97050.81;435091;1251;100619;-40
2024/03/23 15:42:14;;;;;;;7.90;5.60;;;;;;;11.69;76.91;97054.14;435251;1257;108949;-40
2024/03/23 15:52:21;;;;;;;12.90;7.60;;;;;;;11.43;77.77;97062.45;435333;1256;99328;-39
2024/03/23 16:12:37;;;;;;;14.60;8.60;;;;;;;10.79;78.18;97125.36;435253;1257;108529;-40
2024/03/23 16:22:44;;;;;;;7.10;4.60;;;;;;;10.15;78.44;97192.04;435223;1256;99940;-40
2024/03/23 16:32:51;;;;;;;3.70;3.10;;;;;;;9.49;77.77;97266.33;435207;1264;108787;-40
2024/03/23 16:42:58;;;;;;;6.00;4.50;;;;;;;8.73;77.62;97300.36;435222;1255;99686;-41
2024/03/23 16:53:05;;;;;;;6.10;3.10;;;;;;;8.28;77.79;97337.35;435128;1263;112588;-40
2024/03/23 17:03:11;;;;;;;1.90;1.30;;;;;;;7.86;77.89;97371.79;435272;1251;107717;-40
2024/03/23 17:13:18;;;;;;;3.40;1.40;;;;;;;7.43;77.53;97402.88;435163;1255;99327;-41
2024/03/23 17:23:25;;;;;;;1.50;1.10;;;;;;;7.24;77.33;97452.25;435202;1251;108097;-41
2024/03/23 17:33:31;;;;;;;7.40;4.60;;;;;;;6.99;77.29;97482.15;435358;1257;100594;-40
2024/03/23 17:43:38;;;;;;;2.00;1.60;;;;;;;6.85;77.32;97495.86;434754;1257;715852;-40
2024/03/23 17:53:44;;;;;;;3.50;1.90;;;;;;;6.70;77.43;97500.92;435301;1256;109193;-40
2024/03/23 18:03:52;;;;;;;3.30;2.60;;;;;;;6.56;77.62;97514.86;435358;1251;99334;-41
2024/03/23 18:14:13;;;;;;;2.90;1.60;;;;;;;6.38;78.19;97541.16;435228;1251;108643;-40
2024/03/23 18:24:19;;;;;;;2.60;1.40;;;;;;;6.29;78.21;97568.73;435105;1263;100610;-39
2024/03/23 18:34:26;;;;;;;2.70;2.40;;;;;;;6.09;78.84;97598.02;435182;1256;113180;-39
2024/03/23 18:44:32;;;;;;;3.80;1.20;;;;;;;5.88;79.29;97601.10;435235;1257;108225;-40
2024/03/23 18:54:38;;;;;;;1.90;1.70;;;;;;;5.52;80.43;97597.23;435219;1264;100560;-39
2024/03/23 19:04:45;;;;;;;3.80;2.50;;;;;;;5.35;81.05;97603.23;435095;1257;109370;-39
2024/03/23 19:14:51;;;;;;;4.40;3.10;;;;;;;5.26;81.82;97596.49;435256;1251;100579;-41
2024/03/23 19:25:00;;;;;;;7.40;4.80;;;;;;;5.07;82.57;97600.79;435337;1256;111903;-41
2024/03/23 19:35:09;;;;;;;9.10;6.60;;;;;;;5.01;82.73;97590.57;435192;1251;107902;-40
2024/03/23 19:45:18;;;;;;;4.70;4.00;;;;;;;5.07;82.64;97599.94;435127;1257;99878;-40
2024/03/23 19:55:24;;;;;;;7.50;4.40;;;;;;;5.13;82.61;97587.58;435163;1254;106744;-40
2024/03/23 20:05:30;;;;;;;9.40;6.90;;;;;;;5.08;82.73;97583.11;435231;1258;100682;-41
2024/03/23 20:15:36;;;;;;;8.80;5.40;;;;;;;5.01;82.60;97593.56;435255;1255;112970;-40
2024/03/23 20:25:50;;;;;;;5.10;3.40;;;;;;;4.99;82.96;97595.67;435167;1254;108093;-40
2024/03/23 20:35:59;;;;;;;3.80;3.00;;;;;;;4.90;83.04;97604.28;435257;1251;99475;-40
2024/03/23 20:46:06;;;;;;;9.10;6.30;;;;;;;4.87;82.81;97588.06;435166;1254;107532;-40
2024/03/23 20:56:12;;;;;;;8.40;4.70;;;;;;;4.74;82.62;97613.71;435283;1251;99928;-39
2024/03/23 21:06:19;;;;;;;3.70;2.80;;;;;;;4.70;82.35;97616.01;435304;1251;112659;-41
2024/03/23 21:16:25;;;;;;;5.10;3.10;;;;;;;4.72;82.23;97617.67;435187;1251;108230;-40
2024/03/23 21:36:38;;;;;;;17.90;9.90;;;;;;;4.58;82.10;97614.84;435370;1254;107233;-40
2024/03/23 21:46:46;;;;;;;6.40;2.60;;;;;;;4.54;81.69;97608.48;435198;1251;100668;-41
2024/03/23 21:56:52;;;;;;;5.70;3.10;;;;;;;4.50;81.43;97589.23;435281;1256;112185;-39
2024/03/23 22:06:59;;;;;;;15.90;7.30;;;;;;;4.42;81.30;97583.73;435206;1257;107591;-40
2024/03/23 22:17:06;;;;;;;22.80;9.40;;;;;;;4.26;81.08;97578.04;435362;1254;100592;-40
2024/03/23 22:27:13;;;;;;;7.20;3.70;;;;;;;4.05;80.89;97561.88;435306;1254;108145;-40
2024/03/23 22:47:27;;;;;;;11.60;4.30;;;;;;;3.96;80.64;97567.41;435089;1257;111861;-43
2024/03/23 22:57:34;;;;;;;37.50;14.70;;;;;;;4.00;80.61;97569.59;435292;1251;107668;-41
2024/03/23 23:07:40;;;;;;;29.70;14.20;;;;;;;3.82;80.43;97585.38;435223;1251;100576;-39
2024/03/23 23:17:47;;;;;;;11.60;5.00;;;;;;;3.70;80.46;97586.35;435370;1252;107836;-40
2024/03/23 23:27:54;;;;;;;30.40;17.10;;;;;;;3.60;80.43;97578.70;435467;1254;100571;-39
2024/03/23 23:38:00;;;;;;;8.20;4.50;;;;;;;3.55;80.04;97563.45;435151;1254;112939;-39
2024/03/23 23:48:08;;;;;;;8.40;4.10;;;;;;;3.65;80.43;97555.94;435174;1251;108074;-40
2024/03/23 23:58:14;;;;;;;9.90;4.10;;;;;;;3.60;79.96;97562.08;435351;1251;100619;-43
